createdAt,value
2023-04-26T00:01:39.825Z,6.33
2023-04-26T00:06:41.684Z,6.31
2023-04-26T00:11:43.362Z,6.25
2023-04-26T00:16:45.074Z,6.16
2023-04-26T00:21:47.023Z,6.04
2023-04-26T00:26:48.730Z,5.93
2023-04-26T00:31:50.549Z,5.78
2023-04-26T00:36:52.748Z,5.61
2023-04-26T00:41:54.847Z,5.43
2023-04-26T00:46:56.615Z,5.25
2023-04-26T00:51:59.114Z,5.08
2023-04-26T00:57:00.957Z,4.90
2023-04-26T01:02:03.761Z,4.71
2023-04-26T01:07:05.729Z,4.56
2023-04-26T01:12:09.130Z,4.39
2023-04-26T01:17:10.926Z,4.26
2023-04-26T01:22:14.836Z,4.12
2023-04-26T01:27:17.824Z,4.00
2023-04-26T01:32:19.742Z,3.91
2023-04-26T01:37:21.422Z,3.84
2023-04-26T01:42:23.052Z,3.78
2023-04-26T01:47:26.678Z,3.72
2023-04-26T01:52:28.507Z,3.65
2023-04-26T01:57:30.188Z,3.56
2023-04-26T02:02:32.065Z,3.50
2023-04-26T02:07:33.979Z,3.47
2023-04-26T02:12:35.995Z,3.44
2023-04-26T02:17:38.623Z,3.42
2023-04-26T02:22:40.608Z,3.37
2023-04-26T02:27:42.276Z,3.30
2023-04-26T02:32:43.941Z,3.24
2023-04-26T02:37:49.149Z,3.14
2023-04-26T02:42:51.457Z,3.05
2023-04-26T02:47:53.852Z,2.99
2023-04-26T02:52:56.311Z,2.90
2023-04-26T02:57:58.104Z,2.80
2023-04-26T03:03:00.364Z,2.74
2023-04-26T03:08:02.477Z,2.68
2023-04-26T03:13:05.485Z,2.63
2023-04-26T03:18:07.545Z,2.64
2023-04-26T03:23:09.411Z,2.64
2023-04-26T03:28:11.966Z,2.67
2023-04-26T03:33:14.032Z,2.67
2023-04-26T03:38:16.266Z,2.64
2023-04-26T03:43:18.368Z,2.59
2023-04-26T03:48:20.057Z,2.59
2023-04-26T03:53:21.996Z,2.64
2023-04-26T03:58:26.050Z,2.74
2023-04-26T04:07:13.586Z,3.00
2023-04-26T04:12:15.586Z,3.09
2023-04-26T04:17:19.315Z,3.26
2023-04-26T04:22:21.212Z,3.55
2023-04-26T04:27:22.801Z,3.86
2023-04-26T04:32:24.890Z,4.13
2023-04-26T04:37:28.690Z,4.42
2023-04-26T04:42:30.580Z,4.74
2023-04-26T04:47:34.144Z,4.95
2023-04-26T04:52:36.811Z,4.99
2023-04-26T04:57:40.100Z,5.09
2023-04-26T05:02:43.459Z,5.21
2023-04-26T05:07:45.454Z,5.31
2023-04-26T05:12:48.390Z,5.48
2023-04-26T05:17:51.285Z,5.46
2023-04-26T05:22:56.695Z,5.47
2023-04-26T05:27:58.509Z,5.54
2023-04-26T05:33:23.606Z,5.73
2023-04-26T05:38:43.786Z,5.98
2023-04-26T05:43:47.674Z,6.07
2023-04-26T05:48:49.718Z,6.30
2023-04-26T05:53:52.294Z,6.40
2023-04-26T05:58:54.612Z,6.55
2023-04-26T06:03:59.887Z,6.85
2023-04-26T06:09:05.785Z,7.05
2023-04-26T06:14:14.223Z,7.32
2023-04-26T06:19:21.941Z,7.55
2023-04-26T06:24:25.408Z,7.52
2023-04-26T06:29:27.332Z,7.33
2023-04-26T06:34:29.188Z,7.23
2023-04-26T06:39:30.990Z,6.97
2023-04-26T06:44:33.016Z,6.96
2023-04-26T06:49:37.652Z,7.06
2023-04-26T06:54:45.988Z,7.53
2023-04-26T06:59:55.854Z,7.89
2023-04-26T07:04:57.767Z,7.80
2023-04-26T07:09:59.646Z,7.61
2023-04-26T07:15:01.596Z,7.43
2023-04-26T07:20:04.235Z,7.51
2023-04-26T07:25:06.354Z,8.20
2023-04-26T07:30:14.621Z,8.83
2023-04-26T07:35:16.778Z,8.86
2023-04-26T07:40:18.871Z,8.35
2023-04-26T07:45:21.092Z,8.00
2023-04-26T07:50:24.689Z,7.97
2023-04-26T07:55:27.464Z,8.35
2023-04-26T08:00:29.396Z,8.50
2023-04-26T08:05:31.469Z,9.09
2023-04-26T08:10:33.513Z,8.95
2023-04-26T08:15:35.299Z,8.52
2023-04-26T08:20:37.043Z,8.78
2023-04-26T08:25:38.892Z,9.04
2023-04-26T08:30:41.011Z,9.21
2023-04-26T08:35:42.736Z,8.70
2023-04-26T08:40:46.875Z,8.11
2023-04-26T08:45:49.221Z,7.96
2023-04-26T08:50:52.413Z,7.85
2023-04-26T08:55:54.916Z,7.89
2023-04-26T09:00:57.755Z,7.93
2023-04-26T09:06:03.184Z,8.29
2023-04-26T09:11:06.173Z,9.09
2023-04-26T09:16:07.975Z,8.58
2023-04-26T09:21:09.999Z,7.83
2023-04-26T09:26:19.020Z,7.59
2023-04-26T09:31:41.835Z,7.76
2023-04-26T09:36:57.728Z,9.04
2023-04-26T09:42:00.107Z,8.85
2023-04-26T09:47:10.265Z,8.12
2023-04-26T09:52:12.460Z,8.80
2023-04-26T09:57:17.280Z,9.80
2023-04-26T10:02:22.494Z,10.66
2023-04-26T10:07:26.001Z,10.77
2023-04-26T10:12:28.732Z,10.17
2023-04-26T10:17:32.350Z,9.67
2023-04-26T10:22:40.622Z,9.05
2023-04-26T10:27:45.308Z,9.55
2023-04-26T10:32:56.396Z,10.00
2023-04-26T10:38:01.208Z,9.67
2023-04-26T10:43:08.949Z,9.53
2023-04-26T10:48:19.858Z,9.69
2023-04-26T10:53:21.751Z,10.37
2023-04-26T10:58:35.744Z,11.03
2023-04-26T11:03:38.698Z,10.60
2023-04-26T11:08:40.816Z,9.58
2023-04-26T11:13:44.070Z,9.59
2023-04-26T11:18:47.676Z,9.99
2023-04-26T11:23:53.905Z,11.02
2023-04-26T11:28:55.636Z,11.73
2023-04-26T11:34:04.812Z,12.28
2023-04-26T11:39:07.172Z,12.63
2023-04-26T11:44:11.584Z,11.89
2023-04-26T11:49:13.729Z,10.73
2023-04-26T11:54:30.462Z,9.97
2023-04-26T11:59:32.294Z,10.08
2023-04-26T12:04:34.637Z,11.14
2023-04-26T12:09:41.494Z,11.98
2023-04-26T12:14:43.252Z,11.86
2023-04-26T12:19:49.809Z,11.94
2023-04-26T12:25:05.432Z,12.38
2023-04-26T12:30:08.522Z,12.64
2023-04-26T12:35:10.543Z,12.33
2023-04-26T12:40:14.435Z,11.65
2023-04-26T12:45:18.668Z,11.06
2023-04-26T12:50:21.237Z,10.70
2023-04-26T12:55:23.268Z,10.38
2023-04-26T13:00:25.956Z,10.84
2023-04-26T13:05:29.617Z,11.12
2023-04-26T13:10:33.002Z,10.81
2023-04-26T13:15:34.812Z,10.72
2023-04-26T13:20:36.978Z,11.67
2023-04-26T13:25:38.731Z,12.02
2023-04-26T13:30:40.587Z,11.01
2023-04-26T13:35:42.326Z,10.56
2023-04-26T13:40:44.181Z,10.77
2023-04-26T13:45:46.158Z,10.44
2023-04-26T13:50:48.041Z,11.09
2023-04-26T13:55:49.907Z,12.12
2023-04-26T14:00:52.404Z,12.92
2023-04-26T14:05:55.164Z,13.03
2023-04-26T14:10:56.901Z,12.53
2023-04-26T14:15:58.649Z,12.77
2023-04-26T14:21:00.904Z,13.09
2023-04-26T14:26:02.828Z,13.19
2023-04-26T14:31:05.109Z,12.55
2023-04-26T14:36:07.279Z,11.04
2023-04-26T14:41:13.609Z,10.71
2023-04-26T14:46:15.427Z,10.54
2023-04-26T14:51:17.947Z,10.76
2023-04-26T14:56:19.669Z,11.00
2023-04-26T15:01:21.921Z,11.15
2023-04-26T15:06:23.987Z,11.91
2023-04-26T15:11:25.925Z,11.71
2023-04-26T15:16:27.778Z,11.06
2023-04-26T15:21:29.995Z,10.52
2023-04-26T15:26:32.866Z,10.11
2023-04-26T15:31:34.708Z,10.34
2023-04-26T15:36:36.792Z,11.45
2023-04-26T15:41:39.040Z,11.65
2023-04-26T15:46:40.902Z,11.04
2023-04-26T15:51:42.776Z,10.32
2023-04-26T15:56:46.713Z,9.95
2023-04-26T16:01:48.520Z,9.81
2023-04-26T16:06:50.387Z,10.26
2023-04-26T16:11:52.369Z,10.50
2023-04-26T16:16:54.052Z,10.38
2023-04-26T16:21:56.410Z,10.12
2023-04-26T16:26:58.113Z,9.79
2023-04-26T16:32:00.302Z,9.49
2023-04-26T16:37:02.428Z,9.33
2023-04-26T16:42:04.796Z,9.23
2023-04-26T16:47:06.826Z,9.49
2023-04-26T16:52:09.078Z,9.50
2023-04-26T16:57:11.171Z,9.82
2023-04-26T17:02:13.925Z,10.51
2023-04-26T17:07:16.496Z,10.59
2023-04-26T17:12:18.187Z,10.24
2023-04-26T17:17:19.855Z,9.86
2023-04-26T17:22:21.525Z,9.57
2023-04-26T17:27:26.204Z,9.24
2023-04-26T17:32:28.042Z,9.12
2023-04-26T17:37:29.819Z,9.24
2023-04-26T17:42:32.544Z,9.05
2023-04-26T17:47:34.251Z,8.53
2023-04-26T17:52:37.089Z,8.03
2023-04-26T17:57:39.170Z,7.64
2023-04-26T18:02:41.094Z,7.33
2023-04-26T18:07:42.983Z,7.07
2023-04-26T18:12:44.684Z,6.85
2023-04-26T18:17:46.856Z,6.65
2023-04-26T18:22:48.599Z,6.48
2023-04-26T18:27:50.454Z,6.33
2023-04-26T18:32:53.214Z,6.16
2023-04-26T18:37:56.453Z,5.92
2023-04-26T18:42:58.915Z,5.70
2023-04-26T18:48:00.792Z,5.57
2023-04-26T18:53:02.979Z,5.51
2023-04-26T18:58:04.733Z,5.45
2023-04-26T19:03:06.716Z,5.39
2023-04-26T19:08:09.529Z,5.24
2023-04-26T19:13:11.720Z,5.11
2023-04-26T19:18:13.934Z,5.04
2023-04-26T19:23:15.817Z,5.03
2023-04-26T19:28:17.665Z,5.02
2023-04-26T19:33:19.462Z,4.97
2023-04-26T19:38:21.213Z,4.84
2023-04-26T19:43:22.901Z,4.72
2023-04-26T19:48:24.520Z,4.62
2023-04-26T19:53:26.158Z,4.50
2023-04-26T19:58:27.768Z,4.39
2023-04-26T20:03:29.691Z,4.32
2023-04-26T20:08:31.823Z,4.33
2023-04-26T20:13:33.924Z,4.30
2023-04-26T20:18:36.493Z,4.16
2023-04-26T20:23:38.275Z,3.92
2023-04-26T20:28:40.204Z,3.79
2023-04-26T20:33:42.368Z,3.73
2023-04-26T20:38:44.255Z,3.56
2023-04-26T20:43:45.994Z,3.36
2023-04-26T20:48:47.801Z,3.23
2023-04-26T20:53:49.564Z,3.17
2023-04-26T20:58:51.270Z,3.12
2023-04-26T21:03:53.343Z,3.08
2023-04-26T21:08:56.258Z,3.06
2023-04-26T21:14:04.334Z,3.02
2023-04-26T21:19:06.383Z,3.01
2023-04-26T21:24:08.683Z,2.97
2023-04-26T21:29:12.333Z,2.83
2023-04-26T21:34:14.358Z,2.69
2023-04-26T21:39:16.812Z,2.56
2023-04-26T21:44:19.419Z,2.59
2023-04-26T21:49:22.947Z,2.69
2023-04-26T21:54:24.602Z,2.78
2023-04-26T21:59:26.225Z,2.92
2023-04-26T22:04:28.307Z,3.08
2023-04-26T22:09:30.064Z,3.23
2023-04-26T22:14:32.193Z,3.38
2023-04-26T22:19:33.965Z,3.54
2023-04-26T22:24:35.826Z,3.72
2023-04-26T22:29:37.552Z,3.87
2023-04-26T22:34:41.619Z,3.95
2023-04-26T22:39:44.972Z,4.02
2023-04-26T22:44:47.053Z,4.16
2023-04-26T22:49:49.755Z,4.20
2023-04-26T22:54:51.534Z,4.23
2023-04-26T22:59:53.189Z,4.26
2023-04-26T23:04:54.850Z,4.25
2023-04-26T23:09:57.488Z,4.16
2023-04-26T23:15:05.102Z,4.11
2023-04-26T23:20:12.362Z,4.03
2023-04-26T23:25:14.190Z,3.98
2023-04-26T23:30:15.997Z,3.95
2023-04-26T23:35:18.022Z,3.88
2023-04-26T23:40:20.595Z,3.84
2023-04-26T23:45:23.812Z,3.76
2023-04-26T23:50:27.554Z,3.73
2023-04-26T23:55:29.152Z,3.71
